Gooderham, Canada
Current Conditions -  °F | °C
As of 7:14 PM on Tuesday 25 Nov 2014 (Local Time) from CYQA Reporting Station
Light Snow Light Snow  
Wind Chill: 21°   Ceiling: 4000
Heat Index: 30°   Visibility: 9mi
Dew Point: 25°   Wind: 12mph
Humidity: 80%   Direction: 290°WNW
Pressure: 29.97"   Gusts: 20mph
Location:  44.9°N, 78.38°W
Report Text: CYQA 260014Z AUTO 29010G17KT 250V310 9SM -SN FEW023 SCT030 OVC040 M01/M04 A2997 RMK SLP160
Loading
Personal Weather Stations






























Interactive Weather Map New forecast layout! Learn more

10-Day Weather Forecast

Advertisements
Track Severe Weather on mobile